KISW/ISW METAR and TAF weather

Enter ICAO airport designator
Station Type Date Time Source
KISW METAR 2019/10/15 03:54 UTC NOAA

KISW 150354Z AUTO 00000KT 10SM CLR 02/00 A3000 RMK AO2 SLP168 T00170000


Station Type Date Time Source
KISW Decoded METAR 2019/10/15 03:54 UTC NOAA

WI RAPIDS ALEXANDER FIELD, WI, United States (KISW) 44-22N 89-50W 307M
Oct 14, 2019 - 11:54 PM EDT / 2019.10.15 0354 UTC
Wind: Calm:0
Visibility: 10 mile(s):0
Sky conditions: clear
Temperature: 35.1 F (1.7 C)
Dew Point: 32.0 F (0.0 C)
Relative Humidity: 88%
Pressure (altimeter): 30 in. Hg (1015 hPa)
ob: KISW 150354Z AUTO 00000KT 10SM CLR 02/00 A3000 RMK AO2 SLP168 T00170000
cycle: 4

Station Type Date Time Source
KISW TAF UTC NOAA

Error!

Example: see airport list